Have a Safe July 4th! 

Flight Track Log - Related Links

Times and Time Zones

All times are in EDT time to prevent confusion due to time zone crossing. See the EGF4269 flight status page for this flight to view local times or setup timezone preferences in your user account.

Time Position Orientation Groundspeed Altitude Reporting Facility
EDT Latitude Longitude Course Direction KTS MPH feet Rate Location/Type
Fri 10:39:40 PM 41.9333 -87.8833 77° East 198 228 2,500  Level Chicago TRACON
Fri 10:40:40 PM 41.9667 -87.8000 62° Northeast 265 305 4,600 1,476 Climbing Chicago TRACON
Fri 10:41:00 PM 42.0361 -87.5197 83° East  Level FlightAware Approximate
Fri 10:41:46 PM 42.0167 -87.7000 56° Northeast 292 336 5,600  Level Chicago TRACON
Fri 10:42:00 PM 42.0481 -87.3876 83° East  Level FlightAware Approximate
Fri 10:43:00 PM 42.0669 -87.2571 78° East  Level FlightAware Approximate
Fri 10:43:47 PM 42.0422 -87.4983 80° East 287 330 10,800  Level Chicago Center
Fri 10:44:00 PM 42.0872 -87.1268 77° East  Level FlightAware Approximate
Fri 10:44:48 PM 42.0597 -87.3911 78° East 293 337 12,800  Level Chicago Center
Fri 10:45:49 PM 42.0769 -87.2819 78° East 297 342 14,700 1,610 Climbing Chicago Center
Fri 10:46:51 PM 42.0956 -87.1647 78° East 317 365 16,100 1,171 Climbing Chicago Center
Fri 10:47:52 PM 42.1156 -87.0078 80° East 355 409 17,100 492 Climbing Chicago Center
Fri 10:48:53 PM 42.1200 -86.8592 88° East 397 457 17,100  Level Chicago Center
Fri 10:49:54 PM 42.1253 -86.7014 87° East 419 482 17,100 -683 Level Chicago Center
Fri 10:50:56 PM 42.1308 -86.5547 87° East 420 483 15,700 -1,707 Descending Chicago Center
Fri 10:51:57 PM 42.1358 -86.4108 87° East 393 452 13,600 -1,967 Descending Chicago Center
Fri 10:52:58 PM 42.1397 -86.2714 88° East 376 433 11,700 -1,475 Descending Chicago Center
Fri 10:53:59 PM 42.1458 -86.1433 86° East 350 403 10,600 -1,230 Descending Chicago Center
Fri 10:55:00 PM 42.1636 -86.0422 77° East 295 339 9,200 -1,475 Descending Chicago Center
Fri 10:56:01 PM 42.1989 -85.9428 64° Northeast 293 337 7,600 -1,770 Descending Chicago Center
Fri 10:57:02 PM 42.2403 -85.8286 64° Northeast 284 327 5,600 -1,869 Descending Chicago Center
Fri 10:58:03 PM 42.2750 -85.7372 63° Northeast 278 320 3,800 -1,426 Descending Chicago Center
Fri 10:59:04 PM 42.3042 -85.6564 64° Northeast 271 312 2,700 -689 Descending Chicago Center
Fri 11:00:05 PM 42.3142 -85.5878 79° East 205 236 2,400 -443 Descending Chicago Center
Fri 11:01:06 PM 42.2853 -85.5569 142° Southeast 143 165 1,800 -590 Descending Chicago Center
Fri 11:02:07 PM 42.2467 -85.5517 174° South 125 144 1,200 -590 Descending Chicago Center

Login

Don't have an account? Register now (free) for customized features, flight alerts, and more!